createdAt,value
2018-03-14T00:01:37.748Z,26.62
2018-03-14T00:04:04.235Z,26.61
2018-03-14T00:06:30.709Z,26.62
2018-03-14T00:08:57.180Z,26.61
2018-03-14T00:11:23.680Z,26.65
2018-03-14T00:13:50.147Z,26.64
2018-03-14T00:16:16.633Z,26.63
2018-03-14T00:18:43.107Z,26.62
2018-03-14T00:21:09.580Z,26.64
2018-03-14T00:23:36.068Z,26.59
2018-03-14T00:26:02.546Z,26.58
2018-03-14T00:28:29.044Z,26.58
2018-03-14T00:30:55.514Z,26.60
2018-03-14T00:33:22.003Z,26.62
2018-03-14T00:35:48.505Z,26.59
2018-03-14T00:38:14.995Z,26.58
2018-03-14T00:40:41.472Z,26.58
2018-03-14T00:43:07.959Z,26.55
2018-03-14T00:45:34.431Z,26.55
2018-03-14T00:48:01.725Z,26.57
2018-03-14T00:50:28.197Z,26.58
2018-03-14T00:52:54.723Z,26.57
2018-03-14T00:55:21.195Z,26.57
2018-03-14T00:57:47.679Z,26.56
2018-03-14T01:00:14.210Z,26.55
2018-03-14T01:02:40.698Z,26.56
2018-03-14T01:05:07.168Z,26.55
2018-03-14T01:07:33.650Z,26.52
2018-03-14T01:10:00.127Z,26.51
2018-03-14T01:12:26.611Z,26.55
2018-03-14T01:14:53.077Z,26.57
2018-03-14T01:17:19.566Z,26.55
2018-03-14T01:19:46.041Z,26.55
2018-03-14T01:22:12.554Z,26.57
2018-03-14T01:24:39.030Z,26.58
2018-03-14T01:27:05.496Z,26.54
2018-03-14T01:29:31.977Z,26.55
2018-03-14T01:31:58.449Z,26.55
2018-03-14T01:34:24.990Z,26.53
2018-03-14T01:36:51.431Z,26.50
2018-03-14T01:39:17.909Z,26.50
2018-03-14T01:41:44.395Z,26.55
2018-03-14T01:44:10.871Z,26.52
2018-03-14T01:46:37.356Z,26.53
2018-03-14T01:49:03.871Z,26.54
2018-03-14T01:51:30.342Z,26.52
2018-03-14T01:53:56.817Z,26.53
2018-03-14T01:56:23.311Z,26.55
2018-03-14T01:58:49.814Z,26.52
2018-03-14T02:01:16.299Z,26.49
2018-03-14T02:03:42.768Z,26.47
2018-03-14T02:06:09.275Z,26.50
2018-03-14T02:08:35.741Z,26.53
2018-03-14T02:11:02.230Z,26.49
2018-03-14T02:13:28.706Z,26.49
2018-03-14T02:15:55.192Z,26.50
2018-03-14T02:18:21.665Z,26.51
2018-03-14T02:20:48.139Z,26.49
2018-03-14T02:23:14.614Z,26.54
2018-03-14T02:25:41.082Z,26.52
2018-03-14T02:28:07.549Z,26.51
2018-03-14T02:30:34.171Z,26.53
2018-03-14T02:33:00.652Z,26.52
2018-03-14T02:35:27.116Z,26.51
2018-03-14T02:37:53.589Z,26.47
2018-03-14T02:40:20.051Z,26.50
2018-03-14T02:42:46.553Z,26.49
2018-03-14T02:45:13.036Z,26.49
2018-03-14T02:47:39.536Z,26.46
2018-03-14T02:50:06.045Z,26.46
2018-03-14T02:52:32.517Z,26.48
2018-03-14T02:54:59.011Z,26.51
2018-03-14T02:57:25.481Z,26.48
2018-03-14T02:59:51.970Z,26.47
2018-03-14T03:02:18.442Z,26.47
2018-03-14T03:04:44.931Z,26.46
2018-03-14T03:07:11.429Z,26.49
2018-03-14T03:09:37.887Z,26.50
2018-03-14T03:12:04.402Z,26.52
2018-03-14T03:14:30.852Z,26.52
2018-03-14T03:16:57.350Z,26.51
2018-03-14T03:19:23.835Z,26.49
2018-03-14T03:21:50.307Z,26.47
2018-03-14T03:24:16.788Z,26.49
2018-03-14T03:26:43.266Z,26.49
2018-03-14T03:29:09.755Z,26.50
2018-03-14T03:31:36.233Z,26.45
2018-03-14T03:34:02.714Z,26.45
2018-03-14T03:36:29.191Z,26.41
2018-03-14T03:38:55.655Z,26.42
2018-03-14T03:41:22.122Z,26.43
2018-03-14T03:43:48.591Z,26.39
2018-03-14T03:46:15.062Z,26.42
2018-03-14T03:48:41.584Z,26.43
2018-03-14T03:51:08.060Z,26.42
2018-03-14T03:53:34.536Z,26.38
2018-03-14T03:56:01.007Z,26.41
2018-03-14T03:58:27.472Z,26.43
2018-03-14T04:00:53.988Z,26.37
2018-03-14T04:03:20.472Z,26.39
2018-03-14T04:05:46.942Z,26.38
2018-03-14T04:08:13.430Z,26.39
2018-03-14T04:10:39.902Z,26.35
2018-03-14T04:13:06.392Z,26.37
2018-03-14T04:15:32.869Z,26.36
2018-03-14T04:17:59.390Z,26.36
2018-03-14T04:20:25.862Z,26.38
2018-03-14T04:22:52.347Z,26.36
2018-03-14T04:25:18.867Z,26.35
2018-03-14T04:27:45.336Z,26.38
2018-03-14T04:30:11.833Z,26.38
2018-03-14T04:32:38.319Z,26.36
2018-03-14T04:35:04.800Z,26.38
2018-03-14T04:37:31.284Z,26.40
2018-03-14T04:39:57.752Z,26.41
2018-03-14T04:42:24.232Z,26.40
2018-03-14T04:44:50.707Z,26.40
2018-03-14T04:47:17.179Z,26.44
2018-03-14T04:49:43.660Z,26.44
2018-03-14T04:52:10.148Z,26.44
2018-03-14T04:54:36.628Z,26.42
2018-03-14T04:57:03.115Z,26.40
2018-03-14T04:59:29.595Z,26.45
2018-03-14T05:01:56.083Z,26.45
2018-03-14T05:04:22.563Z,26.52
2018-03-14T05:06:49.035Z,26.47
2018-03-14T05:09:15.509Z,26.49
2018-03-14T05:11:41.998Z,26.47
2018-03-14T05:14:08.479Z,26.51
2018-03-14T05:16:34.999Z,26.51
2018-03-14T05:19:01.472Z,26.52
